createdAt,value
2018-06-07T00:00:58.014Z,20.16
2018-06-07T00:05:53.976Z,20.10
2018-06-07T00:10:50.901Z,20.02
2018-06-07T00:15:46.328Z,19.94
2018-06-07T00:20:42.575Z,20.00
2018-06-07T00:25:38.568Z,19.86
2018-06-07T00:30:34.578Z,19.84
2018-06-07T00:35:30.175Z,19.70
2018-06-07T00:40:26.110Z,19.77
2018-06-07T00:45:22.041Z,19.62
2018-06-07T00:50:17.988Z,19.58
2018-06-07T00:55:14.773Z,19.62
2018-06-07T01:00:10.318Z,19.56
2018-06-07T01:05:07.112Z,19.54
2018-06-07T01:10:02.717Z,19.56
2018-06-07T01:14:59.487Z,19.34
2018-06-07T01:19:55.964Z,19.34
2018-06-07T01:24:51.427Z,19.30
2018-06-07T01:29:47.218Z,19.34
2018-06-07T01:34:43.152Z,19.40
2018-06-07T01:39:38.837Z,19.34
2018-06-07T01:44:35.741Z,19.33
2018-06-07T01:49:31.897Z,19.31
2018-06-07T01:54:28.754Z,19.34
2018-06-07T01:59:24.277Z,19.47
2018-06-07T02:04:20.401Z,19.27
2018-06-07T02:09:17.176Z,19.31
2018-06-07T02:14:13.468Z,19.22
2018-06-07T02:19:09.338Z,19.29
2018-06-07T02:24:05.515Z,19.27
2018-06-07T02:29:01.328Z,19.29
2018-06-07T02:33:57.085Z,19.11
2018-06-07T02:38:53.263Z,19.08
2018-06-07T02:43:49.165Z,19.12
2018-06-07T02:48:44.782Z,19.02
2018-06-07T02:53:41.005Z,18.96
2018-06-07T02:58:37.098Z,18.96
2018-06-07T03:03:34.348Z,19.00
2018-06-07T03:08:31.396Z,19.04
2018-06-07T03:13:27.166Z,19.07
2018-06-07T03:18:23.117Z,19.04
2018-06-07T03:23:20.386Z,19.02
2018-06-07T03:28:16.044Z,18.88
2018-06-07T03:33:12.037Z,18.98
2018-06-07T03:38:08.052Z,18.90
2018-06-07T03:43:04.901Z,18.95
2018-06-07T03:48:00.473Z,18.98
2018-06-07T03:52:56.630Z,19.11
2018-06-07T03:57:52.409Z,18.88
2018-06-07T04:02:48.261Z,18.90
2018-06-07T04:07:44.500Z,18.92
2018-06-07T04:12:41.502Z,18.99
2018-06-07T04:17:37.079Z,18.90
2018-06-07T04:22:33.025Z,19.08
2018-06-07T04:27:28.955Z,19.08
2018-06-07T04:32:25.113Z,19.37
2018-06-07T04:37:22.823Z,20.00
2018-06-07T04:42:20.058Z,20.96
2018-06-07T04:47:17.084Z,22.10
2018-06-07T04:52:15.167Z,23.17
2018-06-07T04:57:11.870Z,23.55
2018-06-07T05:02:08.952Z,24.11
2018-06-07T05:07:05.957Z,24.65
2018-06-07T05:12:03.107Z,25.38
2018-06-07T05:17:00.001Z,26.07
2018-06-07T05:21:58.407Z,26.07
2018-06-07T05:26:54.615Z,26.38
2018-06-07T05:31:51.321Z,26.09
2018-06-07T05:36:47.201Z,25.93
2018-06-07T05:41:43.652Z,26.21
2018-06-07T05:46:40.327Z,26.43
2018-06-07T05:51:36.108Z,26.02
2018-06-07T05:56:32.430Z,25.31
2018-06-07T06:01:28.615Z,24.61
2018-06-07T06:06:23.064Z,24.11
2018-06-07T06:11:19.331Z,23.73
2018-06-07T06:16:15.544Z,23.54
2018-06-07T06:21:11.101Z,23.48
2018-06-07T06:26:06.894Z,23.65
2018-06-07T06:31:03.055Z,23.66
2018-06-07T06:35:58.939Z,23.62
2018-06-07T06:40:54.879Z,23.69
2018-06-07T06:45:50.695Z,23.73
2018-06-07T06:50:47.859Z,23.48
2018-06-07T06:55:43.421Z,23.66
2018-06-07T07:00:39.771Z,23.61
2018-06-07T07:05:35.823Z,23.65
2018-06-07T07:10:32.208Z,23.76
2018-06-07T07:15:29.797Z,24.05
2018-06-07T07:20:26.899Z,24.10
2018-06-07T07:25:23.062Z,24.69
2018-06-07T07:30:19.553Z,24.96
2018-06-07T07:35:16.902Z,25.13
2018-06-07T07:40:12.771Z,25.28
2018-06-07T07:45:09.340Z,25.87
2018-06-07T07:50:06.601Z,27.08
2018-06-07T07:55:04.082Z,27.78
2018-06-07T08:00:01.150Z,28.04
2018-06-07T08:04:58.908Z,27.51
2018-06-07T08:09:56.222Z,28.96
2018-06-07T08:14:54.240Z,30.66
2018-06-07T08:19:53.219Z,28.98
2018-06-07T08:24:49.293Z,29.59
2018-06-07T08:29:47.275Z,30.72
2018-06-07T08:34:49.017Z,31.65
2018-06-07T08:39:45.022Z,32.49
2018-06-07T08:44:41.452Z,32.18
2018-06-07T08:49:39.361Z,32.93
2018-06-07T08:54:36.056Z,30.50
2018-06-07T08:59:33.648Z,30.80
2018-06-07T09:04:28.898Z,29.73
2018-06-07T09:09:25.075Z,31.70
2018-06-07T09:14:23.434Z,33.39
2018-06-07T09:19:21.136Z,31.81
2018-06-07T09:24:17.070Z,33.04
2018-06-07T09:29:13.411Z,30.97
2018-06-07T09:34:09.129Z,32.18
2018-06-07T09:39:06.550Z,33.00
2018-06-07T09:44:02.417Z,31.37
2018-06-07T09:48:58.439Z,31.59
2018-06-07T09:53:54.736Z,30.51
2018-06-07T09:58:51.771Z,32.48
2018-06-07T10:03:48.275Z,32.29
2018-06-07T10:08:45.565Z,33.17
2018-06-07T10:13:41.741Z,33.12
2018-06-07T10:18:37.262Z,33.77
2018-06-07T10:23:33.848Z,33.73
2018-06-07T10:28:30.688Z,33.68
2018-06-07T10:33:27.114Z,31.99
2018-06-07T10:38:23.080Z,30.63
2018-06-07T10:43:18.359Z,30.70
2018-06-07T10:48:14.823Z,31.81
2018-06-07T10:53:12.284Z,31.51
2018-06-07T10:58:09.052Z,32.71
2018-06-07T11:03:05.869Z,33.59
2018-06-07T11:08:02.860Z,33.79
2018-06-07T11:13:00.447Z,33.90
2018-06-07T11:17:57.827Z,35.11
2018-06-07T11:22:54.611Z,33.84
2018-06-07T11:27:47.763Z,32.31
2018-06-07T11:32:46.111Z,34.32
2018-06-07T11:37:43.922Z,34.29
2018-06-07T11:42:37.526Z,32.65
2018-06-07T11:47:35.331Z,32.55
2018-06-07T11:52:32.171Z,32.77
2018-06-07T11:57:29.174Z,32.52
2018-06-07T12:02:24.480Z,33.69
2018-06-07T12:07:19.305Z,34.20
2018-06-07T12:12:18.836Z,35.26
2018-06-07T12:17:15.981Z,35.60
2018-06-07T12:22:07.419Z,33.76
2018-06-07T12:27:01.597Z,33.20
2018-06-07T12:32:02.179Z,34.96
2018-06-07T12:36:59.177Z,35.68
2018-06-07T12:41:55.474Z,36.27
2018-06-07T12:46:52.062Z,34.48
2018-06-07T12:51:45.156Z,33.53
2018-06-07T12:56:40.427Z,32.78
2018-06-07T13:01:36.901Z,33.08
2018-06-07T13:06:36.251Z,34.58
2018-06-07T13:11:34.402Z,35.51
2018-06-07T13:16:30.778Z,36.00
2018-06-07T13:21:25.911Z,33.49
2018-06-07T13:26:23.649Z,35.02
2018-06-07T13:31:20.419Z,34.05
2018-06-07T13:36:16.070Z,33.76
2018-06-07T13:41:13.336Z,33.71
2018-06-07T13:46:08.222Z,33.55
2018-06-07T13:51:03.357Z,31.94
2018-06-07T13:55:58.027Z,30.87
2018-06-07T14:00:52.826Z,30.18
2018-06-07T14:05:50.921Z,30.15
2018-06-07T14:10:46.972Z,30.21
2018-06-07T14:15:42.217Z,29.91
2018-06-07T14:20:37.789Z,29.50
2018-06-07T14:25:33.304Z,29.44
2018-06-07T14:30:30.013Z,29.29
2018-06-07T14:35:26.811Z,29.50
2018-06-07T14:40:23.182Z,29.65
2018-06-07T14:45:19.347Z,29.72
2018-06-07T14:50:15.732Z,30.06
2018-06-07T14:55:11.764Z,29.79
2018-06-07T15:00:08.359Z,29.98
2018-06-07T15:05:04.483Z,29.79
2018-06-07T15:10:00.193Z,29.76
2018-06-07T15:14:56.160Z,30.12
2018-06-07T15:19:52.473Z,30.39
2018-06-07T15:24:49.151Z,30.59
2018-06-07T15:29:45.577Z,30.81
2018-06-07T15:34:42.027Z,30.87
2018-06-07T15:39:38.567Z,30.83
2018-06-07T15:44:34.704Z,30.94
2018-06-07T15:49:30.901Z,31.02
2018-06-07T15:54:27.916Z,30.90
2018-06-07T15:59:23.454Z,30.48
2018-06-07T16:04:19.115Z,29.90
2018-06-07T16:09:15.521Z,29.22
2018-06-07T16:14:12.043Z,28.54
2018-06-07T16:19:07.014Z,27.39
2018-06-07T16:24:03.370Z,27.37
2018-06-07T16:28:58.979Z,27.40
2018-06-07T16:33:54.818Z,27.37
2018-06-07T16:38:50.531Z,26.73
2018-06-07T16:43:46.866Z,25.36
2018-06-07T16:48:41.877Z,24.77
2018-06-07T16:53:37.322Z,24.51
2018-06-07T16:58:32.904Z,24.36
2018-06-07T17:03:28.760Z,23.68
2018-06-07T17:08:24.719Z,24.06
2018-06-07T17:13:20.745Z,24.06
2018-06-07T17:18:18.212Z,24.63
2018-06-07T17:23:15.627Z,25.17
2018-06-07T17:28:11.447Z,25.40
2018-06-07T17:33:07.667Z,25.47
2018-06-07T17:38:04.888Z,25.59
2018-06-07T17:43:00.930Z,25.69
2018-06-07T17:47:56.975Z,26.02
2018-06-07T17:52:52.934Z,26.03
2018-06-07T17:57:49.199Z,26.37
2018-06-07T18:02:45.468Z,26.07
2018-06-07T18:07:41.634Z,25.65
2018-06-07T18:12:37.439Z,25.17
2018-06-07T18:17:33.157Z,24.77
2018-06-07T18:22:29.129Z,24.66
2018-06-07T18:27:25.912Z,24.26
2018-06-07T18:32:21.335Z,24.20
2018-06-07T18:37:17.974Z,23.99
2018-06-07T18:42:14.030Z,23.95
2018-06-07T18:47:09.570Z,23.88
2018-06-07T18:52:05.899Z,23.71
2018-06-07T18:57:01.599Z,23.71
2018-06-07T19:01:57.437Z,23.63
2018-06-07T19:06:53.441Z,23.61
2018-06-07T19:11:49.477Z,23.55
2018-06-07T19:16:47.262Z,23.59
2018-06-07T19:21:43.607Z,23.44
2018-06-07T19:26:39.323Z,23.44
2018-06-07T19:31:35.480Z,23.37
2018-06-07T19:36:31.928Z,23.50
2018-06-07T19:41:28.909Z,23.48
2018-06-07T19:46:24.465Z,23.47
2018-06-07T19:51:21.149Z,23.25
2018-06-07T19:56:17.128Z,23.23
2018-06-07T20:01:14.148Z,23.20
2018-06-07T20:06:09.842Z,23.28
2018-06-07T20:11:06.974Z,23.25
2018-06-07T20:16:02.753Z,23.40
2018-06-07T20:20:58.708Z,23.36
2018-06-07T20:25:54.780Z,23.27
2018-06-07T20:30:50.656Z,23.23
2018-06-07T20:35:46.611Z,23.31
2018-06-07T20:40:43.755Z,23.31
2018-06-07T20:45:39.332Z,23.47
2018-06-07T20:50:35.417Z,23.65
2018-06-07T20:55:32.482Z,23.61
2018-06-07T21:00:29.413Z,23.46
2018-06-07T21:05:25.866Z,23.13
2018-06-07T21:10:21.268Z,23.09
2018-06-07T21:15:17.542Z,23.21
2018-06-07T21:20:13.567Z,22.94
2018-06-07T21:25:09.913Z,22.87
2018-06-07T21:30:05.951Z,23.05
2018-06-07T21:35:03.009Z,23.10
2018-06-07T21:39:58.953Z,23.02
2018-06-07T21:44:54.829Z,22.80
2018-06-07T21:49:50.661Z,22.69
2018-06-07T21:54:46.863Z,22.48
2018-06-07T21:59:43.035Z,22.51
2018-06-07T22:04:39.059Z,22.53
2018-06-07T22:09:34.922Z,22.59
2018-06-07T22:14:30.763Z,22.59
2018-06-07T22:19:27.010Z,22.54
2018-06-07T22:24:23.248Z,22.54
2018-06-07T22:29:19.139Z,22.53
2018-06-07T22:34:15.007Z,22.53
2018-06-07T22:39:10.822Z,22.50
2018-06-07T22:44:06.831Z,22.47
2018-06-07T22:49:03.722Z,22.54
2018-06-07T22:54:00.416Z,22.38
2018-06-07T22:58:57.302Z,22.41
2018-06-07T23:03:53.149Z,22.55
2018-06-07T23:08:49.058Z,22.59
2018-06-07T23:13:44.985Z,22.62
2018-06-07T23:18:42.061Z,22.51
2018-06-07T23:23:37.632Z,22.48
2018-06-07T23:28:33.387Z,22.51
2018-06-07T23:33:29.330Z,22.59
2018-06-07T23:38:24.979Z,22.41
2018-06-07T23:43:21.992Z,22.39
2018-06-07T23:48:18.791Z,22.51
2018-06-07T23:53:14.439Z,22.54
2018-06-07T23:58:11.379Z,22.55
